createdAt,value
2023-05-14T00:00:56.103Z,219.73
2023-05-14T00:01:56.078Z,222.41
2023-05-14T00:02:56.437Z,225.66
2023-05-14T00:03:56.504Z,227.67
2023-05-14T00:04:56.598Z,231.75
2023-05-14T00:05:56.786Z,235.79
2023-05-14T00:06:56.936Z,239.12
2023-05-14T00:07:57.131Z,237.71
2023-05-14T00:08:57.287Z,236.63
2023-05-14T00:09:57.469Z,237.03
2023-05-14T00:10:57.651Z,241.25
2023-05-14T00:11:57.818Z,238.41
2023-05-14T00:12:57.996Z,235.87
2023-05-14T00:13:58.170Z,236.89
2023-05-14T00:14:58.360Z,237.94
2023-05-14T00:15:58.584Z,236.74
2023-05-14T00:16:58.701Z,235.85
2023-05-14T00:17:58.899Z,236.95
2023-05-14T00:18:59.088Z,236.30
2023-05-14T00:19:59.235Z,231.95
2023-05-14T00:20:59.425Z,231.07
2023-05-14T00:21:59.590Z,233.83
2023-05-14T00:22:59.765Z,235.39
2023-05-14T00:23:59.946Z,234.77
2023-05-14T00:25:00.163Z,229.24
2023-05-14T00:26:00.457Z,227.18
2023-05-14T00:27:00.493Z,228.15
2023-05-14T00:28:00.648Z,230.88
2023-05-14T00:29:00.827Z,231.79
2023-05-14T00:30:01.090Z,231.05
2023-05-14T00:31:01.202Z,233.54
2023-05-14T00:32:01.344Z,237.23
2023-05-14T00:33:01.733Z,235.74
2023-05-14T00:34:01.726Z,232.67
2023-05-14T00:35:01.893Z,231.34
2023-05-14T00:36:02.217Z,230.70
2023-05-14T00:37:02.261Z,231.97
2023-05-14T00:38:02.435Z,232.50
2023-05-14T00:39:02.591Z,236.92
2023-05-14T00:40:02.810Z,238.28
2023-05-14T00:41:02.964Z,239.26
2023-05-14T00:42:03.128Z,246.92
2023-05-14T00:43:03.315Z,250.00
2023-05-14T00:44:03.501Z,250.42
2023-05-14T00:45:03.688Z,249.85
2023-05-14T00:46:03.851Z,248.03
2023-05-14T00:47:04.082Z,248.83
2023-05-14T00:48:04.236Z,247.08
2023-05-14T00:49:04.466Z,246.72
2023-05-14T00:50:04.583Z,244.59
2023-05-14T00:51:04.762Z,243.70
2023-05-14T00:52:04.938Z,239.24
2023-05-14T00:53:05.133Z,237.19
2023-05-14T00:54:05.211Z,236.67
2023-05-14T00:55:05.273Z,236.32
2023-05-14T00:56:05.333Z,232.58
2023-05-14T00:57:05.397Z,229.78
2023-05-14T00:58:05.465Z,229.85
2023-05-14T00:59:05.530Z,229.11
2023-05-14T01:00:05.594Z,228.48
2023-05-14T01:01:05.688Z,226.96
2023-05-14T01:02:05.707Z,228.02
2023-05-14T01:03:05.811Z,224.18
2023-05-14T01:04:05.948Z,225.95
2023-05-14T01:05:06.099Z,230.05
2023-05-14T01:06:06.271Z,234.27
2023-05-14T01:07:06.460Z,234.67
2023-05-14T01:08:06.659Z,232.28
2023-05-14T01:09:06.846Z,233.60
2023-05-14T01:10:07.038Z,235.85
2023-05-14T01:11:07.218Z,237.20
2023-05-14T01:12:07.406Z,240.60
2023-05-14T01:13:07.591Z,243.82
2023-05-14T01:14:07.766Z,247.54
2023-05-14T01:15:07.951Z,248.50
2023-05-14T01:16:08.147Z,247.74
2023-05-14T01:17:08.317Z,249.93
2023-05-14T01:18:08.532Z,250.00
2023-05-14T01:19:08.711Z,249.52
2023-05-14T01:20:08.862Z,250.00
2023-05-14T01:21:09.036Z,250.00
2023-05-14T01:22:09.219Z,250.00
2023-05-14T01:23:09.408Z,249.82
2023-05-14T01:24:09.602Z,249.56
2023-05-14T01:25:09.770Z,250.00
2023-05-14T01:26:09.927Z,247.38
2023-05-14T01:27:10.105Z,245.65
2023-05-14T01:28:10.283Z,246.70
2023-05-14T01:29:10.461Z,245.40
2023-05-14T01:30:10.650Z,241.65
2023-05-14T01:31:10.811Z,239.12
2023-05-14T01:32:11.054Z,237.31
2023-05-14T01:33:11.173Z,238.75
2023-05-14T01:34:11.353Z,242.41
2023-05-14T01:35:11.544Z,245.57
2023-05-14T01:36:11.710Z,242.45
2023-05-14T01:37:11.887Z,241.21
2023-05-14T01:38:12.077Z,239.44
2023-05-14T01:39:12.260Z,240.24
2023-05-14T01:40:12.468Z,240.14
2023-05-14T01:41:12.650Z,240.96
2023-05-14T01:42:12.853Z,243.77
2023-05-14T01:43:13.062Z,242.71
2023-05-14T01:44:13.222Z,240.34
2023-05-14T01:45:13.399Z,238.05
2023-05-14T01:46:13.608Z,237.76
2023-05-14T01:47:13.782Z,235.52
2023-05-14T01:48:13.944Z,237.99
2023-05-14T01:49:14.141Z,235.70
2023-05-14T01:50:14.322Z,234.59
2023-05-14T01:51:14.513Z,236.86
2023-05-14T01:52:14.691Z,236.21
2023-05-14T01:53:14.873Z,237.65
2023-05-14T01:54:15.042Z,238.80
2023-05-14T01:55:15.223Z,239.32
2023-05-14T01:56:15.398Z,239.73
2023-05-14T01:57:15.584Z,237.09
2023-05-14T01:58:15.780Z,236.48
2023-05-14T01:59:15.979Z,229.96
2023-05-14T02:00:16.150Z,227.36
2023-05-14T02:01:16.376Z,230.62
2023-05-14T02:02:16.526Z,232.75
2023-05-14T02:03:16.707Z,233.34
2023-05-14T02:04:16.963Z,232.21
2023-05-14T02:05:17.101Z,235.08
2023-05-14T02:06:17.281Z,237.09
2023-05-14T02:07:17.458Z,240.08
2023-05-14T02:08:17.649Z,242.21
2023-05-14T02:09:17.846Z,243.53
2023-05-14T02:10:18.008Z,243.23
2023-05-14T02:11:18.192Z,243.44
2023-05-14T02:12:18.367Z,243.24
2023-05-14T02:13:18.543Z,242.57
2023-05-14T02:14:18.725Z,242.49
2023-05-14T02:15:18.898Z,240.39
2023-05-14T02:16:19.141Z,237.24
2023-05-14T02:17:19.261Z,236.15
2023-05-14T02:18:19.424Z,235.38
2023-05-14T02:19:19.599Z,236.31
2023-05-14T02:20:19.768Z,238.01
2023-05-14T02:21:19.954Z,236.99
2023-05-14T02:22:20.141Z,237.56
2023-05-14T02:23:25.609Z,238.31
2023-05-14T02:24:21.328Z,237.23
2023-05-14T02:25:20.325Z,235.28
2023-05-14T02:26:20.323Z,235.90
2023-05-14T02:27:20.315Z,235.43
2023-05-14T02:28:20.314Z,236.63
2023-05-14T02:29:20.384Z,237.19
2023-05-14T02:30:20.313Z,237.38
2023-05-14T02:31:20.371Z,238.46
2023-05-14T02:32:20.312Z,237.61
2023-05-14T02:33:20.475Z,243.31
2023-05-14T02:34:20.427Z,242.65
2023-05-14T02:35:20.493Z,238.49
2023-05-14T02:36:20.573Z,238.76
2023-05-14T02:37:20.624Z,241.26
2023-05-14T02:38:20.682Z,244.77
2023-05-14T02:39:20.759Z,248.54
2023-05-14T02:40:20.850Z,248.04
2023-05-14T02:41:20.878Z,245.58
2023-05-14T02:42:20.933Z,246.07
2023-05-14T02:43:20.992Z,246.19
2023-05-14T02:44:21.060Z,248.18
2023-05-14T02:45:21.109Z,249.45
2023-05-14T02:46:21.260Z,249.79
2023-05-14T02:47:21.322Z,250.00
2023-05-14T02:48:21.280Z,250.00
2023-05-14T02:49:21.316Z,250.00
2023-05-14T02:50:21.595Z,249.74
2023-05-14T02:51:21.416Z,246.36
2023-05-14T02:52:21.490Z,243.69
2023-05-14T02:53:21.550Z,243.46
2023-05-14T02:54:21.602Z,241.63
2023-05-14T02:55:21.656Z,240.81
2023-05-14T02:56:21.719Z,240.96
2023-05-14T02:57:21.766Z,239.40
2023-05-14T02:58:24.639Z,237.06
2023-05-14T02:59:22.832Z,236.48
2023-05-14T03:00:22.085Z,235.99
2023-05-14T03:01:21.929Z,236.58
2023-05-14T03:02:21.838Z,235.63
2023-05-14T03:03:21.844Z,232.13
2023-05-14T03:04:21.828Z,230.85
2023-05-14T03:05:21.815Z,231.37
2023-05-14T03:06:21.837Z,232.61
2023-05-14T03:07:21.878Z,230.82
2023-05-14T03:08:21.828Z,231.55
2023-05-14T03:09:21.906Z,233.12
2023-05-14T03:10:22.254Z,235.79
2023-05-14T03:11:22.031Z,236.54
2023-05-14T03:12:22.106Z,237.92
2023-05-14T03:13:22.168Z,239.10
2023-05-14T03:14:22.242Z,239.73
2023-05-14T03:15:22.306Z,239.71
2023-05-14T03:16:22.449Z,240.16
2023-05-14T03:17:22.460Z,239.41
2023-05-14T03:18:22.485Z,241.35
2023-05-14T03:19:22.551Z,241.92
2023-05-14T03:20:22.876Z,243.13
2023-05-14T03:21:22.759Z,244.34
2023-05-14T03:22:22.750Z,246.44
2023-05-14T03:23:22.807Z,247.59
2023-05-14T03:24:22.869Z,248.33
2023-05-14T03:25:22.939Z,249.66
2023-05-14T03:26:23.001Z,249.83
2023-05-14T03:27:23.111Z,250.00
2023-05-14T03:28:23.139Z,249.87
2023-05-14T03:29:23.263Z,248.88
2023-05-14T03:30:23.483Z,248.36
2023-05-14T03:31:23.356Z,248.46
2023-05-14T03:32:23.435Z,250.00
2023-05-14T03:33:23.541Z,250.00
2023-05-14T03:34:23.545Z,250.00
2023-05-14T03:35:23.624Z,249.76
2023-05-14T03:36:23.710Z,249.35
2023-05-14T03:37:23.761Z,248.72
2023-05-14T03:38:23.831Z,248.17
2023-05-14T03:39:23.999Z,248.52
2023-05-14T03:40:24.110Z,248.98
2023-05-14T03:41:24.037Z,249.51
2023-05-14T03:42:24.115Z,249.75
2023-05-14T03:43:24.166Z,248.24
2023-05-14T03:44:24.232Z,246.41
2023-05-14T03:45:24.278Z,245.55
2023-05-14T03:46:24.326Z,245.40
2023-05-14T03:47:24.396Z,245.81
2023-05-14T03:48:24.530Z,246.40
2023-05-14T03:49:24.518Z,245.27
2023-05-14T03:50:24.721Z,244.09
2023-05-14T03:51:24.686Z,247.05
2023-05-14T03:52:24.741Z,250.07
2023-05-14T03:53:24.732Z,249.13
2023-05-14T03:54:24.799Z,247.52
2023-05-14T03:55:24.866Z,248.04
2023-05-14T03:56:24.925Z,250.00
2023-05-14T03:57:24.992Z,249.88
2023-05-14T03:58:25.088Z,249.43
2023-05-14T03:59:25.104Z,247.21
2023-05-14T04:00:25.541Z,244.10
2023-05-14T04:01:25.225Z,243.37
2023-05-14T04:02:25.392Z,243.69
2023-05-14T04:03:25.527Z,244.70
2023-05-14T04:04:25.481Z,245.73
2023-05-14T04:05:25.456Z,246.65
2023-05-14T04:06:25.517Z,247.11
2023-05-14T04:07:25.579Z,247.96
2023-05-14T04:08:25.647Z,247.62
2023-05-14T04:09:25.696Z,248.95
2023-05-14T04:10:25.962Z,250.00
2023-05-14T04:11:25.800Z,250.00
2023-05-14T04:12:25.834Z,249.50
2023-05-14T04:13:25.912Z,243.37
2023-05-14T04:14:25.958Z,238.44
2023-05-14T04:15:26.035Z,234.52
2023-05-14T04:16:26.099Z,232.79
2023-05-14T04:17:26.226Z,230.48
2023-05-14T04:18:26.212Z,230.50
2023-05-14T04:19:26.234Z,231.22
2023-05-14T04:20:26.366Z,231.15
2023-05-14T04:21:26.367Z,230.22
2023-05-14T04:22:26.424Z,228.90
2023-05-14T04:23:26.504Z,227.36
2023-05-14T04:24:26.566Z,225.56
2023-05-14T04:25:26.650Z,224.21
2023-05-14T04:26:26.667Z,221.03
2023-05-14T04:27:26.730Z,218.12
2023-05-14T04:28:26.799Z,216.78
2023-05-14T04:29:26.852Z,217.14
2023-05-14T04:30:26.932Z,214.48
2023-05-14T04:31:27.092Z,212.10
2023-05-14T04:32:27.072Z,211.91
2023-05-14T04:33:27.076Z,215.22
2023-05-14T04:34:27.142Z,213.34
2023-05-14T04:35:27.201Z,211.79
2023-05-14T04:36:27.268Z,206.09
2023-05-14T04:37:27.425Z,203.15
2023-05-14T04:38:27.512Z,204.45
2023-05-14T04:39:27.711Z,205.31
2023-05-14T04:40:27.900Z,206.88
2023-05-14T04:41:28.098Z,206.36
2023-05-14T04:42:28.293Z,205.29
2023-05-14T04:43:28.388Z,207.45
2023-05-14T04:44:28.522Z,210.07
2023-05-14T04:45:28.530Z,211.05
2023-05-14T04:46:28.696Z,212.47
2023-05-14T04:47:28.657Z,213.26
2023-05-14T04:48:28.703Z,212.45
2023-05-14T04:49:28.768Z,212.36
2023-05-14T04:50:28.863Z,213.79
2023-05-14T04:51:28.907Z,212.91
2023-05-14T04:52:29.039Z,213.16
2023-05-14T04:53:29.021Z,213.69
2023-05-14T04:54:29.272Z,210.05
2023-05-14T04:55:29.420Z,208.29
2023-05-14T04:56:29.659Z,209.82
2023-05-14T04:57:29.785Z,210.25
2023-05-14T04:58:30.788Z,209.70
2023-05-14T04:59:30.026Z,209.44
2023-05-14T05:00:30.188Z,209.36
2023-05-14T05:01:30.188Z,210.87
2023-05-14T05:02:30.235Z,211.32
2023-05-14T05:03:30.423Z,207.52
2023-05-14T05:04:30.352Z,204.75
2023-05-14T05:05:30.431Z,203.93
2023-05-14T05:06:30.501Z,204.80
2023-05-14T05:07:30.580Z,206.20
2023-05-14T05:08:30.650Z,210.06
2023-05-14T05:09:30.831Z,214.10
2023-05-14T05:10:30.922Z,216.04
2023-05-14T05:11:31.138Z,221.76
2023-05-14T05:12:31.329Z,225.92
2023-05-14T05:13:31.458Z,225.87
2023-05-14T05:14:31.659Z,224.95
2023-05-14T05:15:31.868Z,227.80
2023-05-14T05:16:32.096Z,230.57
2023-05-14T05:17:32.189Z,232.62
2023-05-14T05:18:32.407Z,233.43
2023-05-14T05:19:42.536Z,234.27
2023-05-14T05:20:33.666Z,234.29
2023-05-14T05:21:32.530Z,234.29
2023-05-14T05:22:32.554Z,233.38
2023-05-14T05:23:32.557Z,227.69
2023-05-14T05:24:32.513Z,226.05
2023-05-14T05:25:32.522Z,228.42
2023-05-14T05:26:32.716Z,231.35
2023-05-14T05:27:32.526Z,232.94
2023-05-14T05:28:32.529Z,235.06
2023-05-14T05:29:32.701Z,239.35
2023-05-14T05:30:32.531Z,241.56
2023-05-14T05:31:32.636Z,243.66
2023-05-14T05:32:32.543Z,243.99
2023-05-14T05:33:32.550Z,244.53
2023-05-14T05:34:32.648Z,244.15
2023-05-14T05:35:32.634Z,245.29
2023-05-14T05:36:32.772Z,245.81
2023-05-14T05:37:32.702Z,245.70
2023-05-14T05:38:32.922Z,244.75
2023-05-14T05:39:32.804Z,243.47
2023-05-14T05:40:32.850Z,243.02
2023-05-14T05:41:32.932Z,243.65
2023-05-14T05:42:33.011Z,243.43
2023-05-14T05:43:33.123Z,241.27
2023-05-14T05:44:33.085Z,241.84
2023-05-14T05:45:33.111Z,240.60
2023-05-14T05:46:33.378Z,240.16
2023-05-14T05:47:33.222Z,240.78
2023-05-14T05:48:33.239Z,243.27
2023-05-14T05:49:33.259Z,242.62
2023-05-14T05:50:33.300Z,241.77
2023-05-14T05:51:33.567Z,238.56
2023-05-14T05:52:33.389Z,233.51
2023-05-14T05:53:33.419Z,227.05
2023-05-14T05:54:33.506Z,225.38
2023-05-14T05:55:33.568Z,226.81
2023-05-14T05:56:33.735Z,224.15
2023-05-14T05:57:34.098Z,222.21
2023-05-14T05:58:34.090Z,222.99
2023-05-14T05:59:34.281Z,225.45
2023-05-14T06:00:34.456Z,226.73
2023-05-14T06:01:34.633Z,228.53
2023-05-14T06:02:35.020Z,228.88
2023-05-14T06:03:34.996Z,230.02
2023-05-14T06:04:35.167Z,228.08
2023-05-14T06:05:35.478Z,227.39
2023-05-14T06:06:35.621Z,226.80
2023-05-14T06:07:35.804Z,226.56
2023-05-14T06:08:35.921Z,224.61
2023-05-14T06:09:36.477Z,223.79
2023-05-14T06:10:36.124Z,225.02
2023-05-14T06:11:36.754Z,228.78
2023-05-14T06:12:36.437Z,231.95
2023-05-14T06:13:36.240Z,234.48
2023-05-14T06:14:36.299Z,236.38
2023-05-14T06:15:36.346Z,237.38
2023-05-14T06:16:36.456Z,237.07
2023-05-14T06:17:36.511Z,236.22
2023-05-14T06:18:36.648Z,237.42
2023-05-14T06:19:36.762Z,236.20
2023-05-14T06:20:36.885Z,237.09
2023-05-14T06:21:37.013Z,239.21
2023-05-14T06:22:37.240Z,239.80
2023-05-14T06:23:37.346Z,238.41
2023-05-14T06:24:37.517Z,237.16
2023-05-14T06:25:37.690Z,236.29
2023-05-14T06:26:37.833Z,238.33
2023-05-14T06:27:38.173Z,238.47
2023-05-14T06:28:38.179Z,237.35
2023-05-14T06:29:38.358Z,233.40
2023-05-14T06:30:38.532Z,231.91
2023-05-14T06:31:38.733Z,232.96
2023-05-14T06:32:38.918Z,233.98
2023-05-14T06:33:39.283Z,235.34
2023-05-14T06:34:39.438Z,237.94
2023-05-14T06:35:39.365Z,241.63
2023-05-14T06:36:39.519Z,246.29
2023-05-14T06:37:39.696Z,249.10
2023-05-14T06:38:39.809Z,249.28
2023-05-14T06:39:40.093Z,246.69
2023-05-14T06:40:40.344Z,242.77
2023-05-14T06:41:40.262Z,238.23
2023-05-14T06:42:40.405Z,236.68
2023-05-14T06:43:40.546Z,230.82
2023-05-14T06:44:40.693Z,227.04
2023-05-14T06:45:40.845Z,225.22
2023-05-14T06:46:41.076Z,224.59
2023-05-14T06:47:41.213Z,224.50
2023-05-14T06:48:41.490Z,224.12
2023-05-14T06:49:41.421Z,220.30
2023-05-14T06:50:41.561Z,215.63
2023-05-14T06:51:41.714Z,212.14
2023-05-14T06:52:41.866Z,209.18
2023-05-14T06:53:42.029Z,205.30
2023-05-14T06:54:42.256Z,207.23
2023-05-14T06:55:42.426Z,211.53
2023-05-14T06:56:42.498Z,215.00
2023-05-14T06:57:42.630Z,217.88
2023-05-14T06:58:42.799Z,220.40
2023-05-14T06:59:42.949Z,221.26
2023-05-14T07:00:43.107Z,222.74
2023-05-14T07:01:43.530Z,224.38
2023-05-14T07:02:43.453Z,228.65
2023-05-14T07:03:43.590Z,230.98
2023-05-14T07:04:43.806Z,229.99
2023-05-14T07:05:43.911Z,226.38
2023-05-14T07:06:44.073Z,225.80
2023-05-14T07:07:44.276Z,222.85
2023-05-14T07:08:44.530Z,216.18
2023-05-14T07:09:44.531Z,210.28
2023-05-14T07:10:44.682Z,209.10
2023-05-14T07:11:44.837Z,207.92
2023-05-14T07:12:45.038Z,209.87
2023-05-14T07:13:45.141Z,212.64
2023-05-14T07:14:45.288Z,212.65
2023-05-14T07:15:45.598Z,204.09
2023-05-14T07:16:45.646Z,201.80
2023-05-14T07:17:45.785Z,201.96
2023-05-14T07:18:45.977Z,203.47
2023-05-14T07:19:46.104Z,202.99
2023-05-14T07:20:46.255Z,207.91
2023-05-14T07:21:46.553Z,208.24
2023-05-14T07:22:46.641Z,210.31
2023-05-14T07:23:46.736Z,213.63
2023-05-14T07:24:46.902Z,214.09
2023-05-14T07:25:46.984Z,214.99
2023-05-14T07:26:47.161Z,213.58
2023-05-14T07:27:47.306Z,211.86
2023-05-14T07:28:47.455Z,210.08
2023-05-14T07:29:47.621Z,210.96
2023-05-14T07:30:47.794Z,210.07
2023-05-14T07:31:48.049Z,207.27
2023-05-14T07:32:48.151Z,200.50
2023-05-14T07:33:48.379Z,199.47
2023-05-14T07:34:48.364Z,199.84
2023-05-14T07:35:48.506Z,195.17
2023-05-14T07:36:48.648Z,194.75
2023-05-14T07:37:48.776Z,191.08
2023-05-14T07:38:48.929Z,176.68
2023-05-14T07:39:49.124Z,167.27
2023-05-14T07:40:49.201Z,159.23
2023-05-14T07:41:49.359Z,153.71
2023-05-14T07:42:49.465Z,150.02
2023-05-14T07:43:49.686Z,150.17
2023-05-14T07:44:49.801Z,150.47
2023-05-14T07:45:50.027Z,148.61
2023-05-14T07:46:50.172Z,146.79
2023-05-14T07:47:50.273Z,143.09
2023-05-14T07:48:50.343Z,141.46
2023-05-14T07:49:50.557Z,140.68
2023-05-14T07:50:50.710Z,141.66
2023-05-14T07:51:50.748Z,145.08
2023-05-14T07:52:50.848Z,149.72
2023-05-14T07:53:51.053Z,147.73
2023-05-14T07:54:51.110Z,147.78
2023-05-14T07:55:51.263Z,146.32
2023-05-14T07:56:51.404Z,135.79
2023-05-14T07:57:51.567Z,131.35
2023-05-14T07:58:51.844Z,132.84
2023-05-14T07:59:51.838Z,136.58
2023-05-14T08:00:51.982Z,131.14
2023-05-14T08:01:52.149Z,126.06
2023-05-14T08:02:52.666Z,125.33
2023-05-14T08:03:52.507Z,126.40
2023-05-14T08:04:52.413Z,129.37
2023-05-14T08:05:52.485Z,135.77
2023-05-14T08:06:52.586Z,133.31
2023-05-14T08:07:52.399Z,126.66
2023-05-14T08:08:52.448Z,114.69
2023-05-14T08:09:52.549Z,112.26
2023-05-14T08:10:52.849Z,107.38
2023-05-14T08:11:52.565Z,103.32
2023-05-14T08:12:52.503Z,104.04
2023-05-14T08:13:52.497Z,96.61
2023-05-14T08:14:52.480Z,86.29
2023-05-14T08:15:52.457Z,82.15
2023-05-14T08:16:52.538Z,76.06
2023-05-14T08:17:52.515Z,63.25
2023-05-14T08:18:52.463Z,53.45
2023-05-14T08:19:52.560Z,57.35
2023-05-14T08:20:52.540Z,66.07
2023-05-14T08:21:52.807Z,63.81
2023-05-14T08:22:52.509Z,56.87
2023-05-14T08:23:52.550Z,47.87
2023-05-14T08:24:52.504Z,45.14
2023-05-14T08:25:52.477Z,43.96
2023-05-14T08:26:52.629Z,45.35
2023-05-14T08:27:52.616Z,47.50
2023-05-14T08:28:52.544Z,42.58
2023-05-14T08:29:52.558Z,41.38
2023-05-14T08:30:52.575Z,40.92
2023-05-14T08:31:52.592Z,45.37
2023-05-14T08:32:52.728Z,34.98
2023-05-14T08:33:52.564Z,14.08
2023-05-14T08:34:52.732Z,12.38
2023-05-14T08:35:52.663Z,3.87
2023-05-14T08:36:52.662Z,6.25
2023-05-14T08:37:52.725Z,10.47
2023-05-14T08:38:52.778Z,15.52
2023-05-14T08:39:52.756Z,24.52
2023-05-14T08:40:52.800Z,30.59
2023-05-14T08:41:52.868Z,31.02
2023-05-14T08:42:52.894Z,25.65
2023-05-14T08:43:53.386Z,26.35
2023-05-14T08:44:52.939Z,24.61
2023-05-14T08:45:52.944Z,24.19
2023-05-14T08:46:52.959Z,25.14
2023-05-14T08:47:53.085Z,26.58
2023-05-14T08:48:53.051Z,34.68
2023-05-14T08:49:53.056Z,34.16
2023-05-14T08:50:53.047Z,32.10
2023-05-14T08:51:53.008Z,37.96
2023-05-14T08:52:53.050Z,40.07
2023-05-14T08:53:52.978Z,41.29
2023-05-14T08:54:52.964Z,40.96
2023-05-14T08:55:53.000Z,48.80
2023-05-14T08:56:52.910Z,58.87
2023-05-14T08:57:52.953Z,64.14
2023-05-14T08:58:52.850Z,60.90
2023-05-14T08:59:52.886Z,58.01
2023-05-14T09:00:52.787Z,53.12
2023-05-14T09:01:52.783Z,44.92
2023-05-14T09:02:52.855Z,35.00
2023-05-14T09:03:52.895Z,30.02
2023-05-14T09:04:52.677Z,41.08
2023-05-14T09:05:52.635Z,55.93
2023-05-14T09:06:52.588Z,63.22
2023-05-14T09:07:52.595Z,65.04
2023-05-14T09:08:52.510Z,67.30
2023-05-14T09:09:52.558Z,69.15
2023-05-14T09:10:52.467Z,68.66
2023-05-14T09:11:52.444Z,73.74
2023-05-14T09:12:52.387Z,77.29
2023-05-14T09:13:52.327Z,80.75
2023-05-14T09:14:52.279Z,83.25
2023-05-14T09:15:52.295Z,87.26
2023-05-14T09:16:52.460Z,92.05
2023-05-14T09:17:52.278Z,96.21
2023-05-14T09:18:52.239Z,102.14
2023-05-14T09:19:52.133Z,104.71
2023-05-14T09:20:52.078Z,105.05
2023-05-14T09:21:51.987Z,107.23
2023-05-14T09:22:51.962Z,109.06
2023-05-14T09:23:51.881Z,108.64
2023-05-14T09:24:51.893Z,110.35
2023-05-14T09:25:51.812Z,112.51
2023-05-14T09:26:51.755Z,113.08
2023-05-14T09:27:51.811Z,94.87
2023-05-14T09:28:51.749Z,87.74
2023-05-14T09:29:51.651Z,83.84
2023-05-14T09:30:51.662Z,84.93
2023-05-14T09:31:51.764Z,92.22
2023-05-14T09:32:51.540Z,103.95
2023-05-14T09:33:51.640Z,111.77
2023-05-14T09:34:51.438Z,113.07
2023-05-14T09:35:51.397Z,112.43
2023-05-14T09:36:51.328Z,100.11
2023-05-14T09:37:51.350Z,94.21
2023-05-14T09:38:51.329Z,96.66
2023-05-14T09:39:51.364Z,100.50
2023-05-14T09:40:51.299Z,97.73
2023-05-14T09:41:51.268Z,96.58
2023-05-14T09:42:51.233Z,101.17
2023-05-14T09:43:51.220Z,105.18
2023-05-14T09:44:51.307Z,106.65
2023-05-14T09:45:51.244Z,106.49
2023-05-14T09:46:51.246Z,102.04
2023-05-14T09:47:51.254Z,98.32
2023-05-14T09:48:51.217Z,100.22
2023-05-14T09:49:51.129Z,106.37
2023-05-14T09:50:51.124Z,105.93
2023-05-14T09:51:51.121Z,102.10
2023-05-14T09:52:51.006Z,95.78
2023-05-14T09:53:51.065Z,89.55
2023-05-14T09:54:50.940Z,84.92
2023-05-14T09:55:50.986Z,80.27
2023-05-14T09:56:50.933Z,76.79
2023-05-14T09:57:51.064Z,79.47
2023-05-14T09:58:50.956Z,88.78
2023-05-14T09:59:50.919Z,86.79
2023-05-14T10:00:50.960Z,78.41
2023-05-14T10:01:50.902Z,66.23
2023-05-14T10:02:50.925Z,57.78
2023-05-14T10:03:50.943Z,53.62
2023-05-14T10:04:50.968Z,49.59
2023-05-14T10:05:50.866Z,58.78
2023-05-14T10:06:50.834Z,72.98
2023-05-14T10:07:50.858Z,75.05
2023-05-14T10:08:50.882Z,74.87
2023-05-14T10:09:50.942Z,58.99
2023-05-14T10:10:50.828Z,38.76
2023-05-14T10:11:50.847Z,28.67
2023-05-14T10:12:50.840Z,22.30
2023-05-14T10:13:50.825Z,25.29
2023-05-14T10:14:50.827Z,25.00
2023-05-14T10:15:50.805Z,30.38
2023-05-14T10:16:50.867Z,34.12
2023-05-14T10:17:50.822Z,36.97
2023-05-14T10:18:50.828Z,33.39
2023-05-14T10:19:50.795Z,32.67
2023-05-14T10:20:50.807Z,32.81
2023-05-14T10:21:50.747Z,28.56
2023-05-14T10:22:50.924Z,27.29
2023-05-14T10:23:50.837Z,37.59
2023-05-14T10:24:50.961Z,39.69
2023-05-14T10:25:51.066Z,37.34
2023-05-14T10:26:51.179Z,36.98
2023-05-14T10:27:51.309Z,29.87
2023-05-14T10:28:51.416Z,27.00
2023-05-14T10:29:51.529Z,29.01
2023-05-14T10:30:51.657Z,34.67
2023-05-14T10:31:51.754Z,32.24
2023-05-14T10:32:51.901Z,32.34
2023-05-14T10:33:52.018Z,14.91
2023-05-14T10:34:52.266Z,25.79
2023-05-14T10:35:52.258Z,29.52
2023-05-14T10:36:52.395Z,22.41
2023-05-14T10:37:52.514Z,21.96
2023-05-14T10:38:52.676Z,25.01
2023-05-14T10:39:52.729Z,32.13
2023-05-14T10:40:54.170Z,37.76
2023-05-14T10:41:52.839Z,34.51
2023-05-14T10:42:52.783Z,25.94
2023-05-14T10:43:52.727Z,27.59
2023-05-14T10:44:52.696Z,28.68
2023-05-14T10:45:52.736Z,28.65
2023-05-14T10:46:52.807Z,26.16
2023-05-14T10:47:52.819Z,21.81
2023-05-14T10:48:52.674Z,19.73
2023-05-14T10:49:52.680Z,22.97
2023-05-14T10:50:52.725Z,28.67
2023-05-14T10:51:52.646Z,34.32
2023-05-14T10:52:52.704Z,34.88
2023-05-14T10:53:52.741Z,24.03
2023-05-14T10:54:52.757Z,25.18
2023-05-14T10:55:52.631Z,25.12
2023-05-14T10:56:52.614Z,24.87
2023-05-14T10:57:52.547Z,25.00
2023-05-14T10:58:52.570Z,27.03
2023-05-14T10:59:52.513Z,25.00
2023-05-14T11:00:52.523Z,23.12
2023-05-14T11:01:52.473Z,25.15
2023-05-14T11:02:52.465Z,24.86
2023-05-14T11:03:52.493Z,25.99
2023-05-14T11:04:52.414Z,24.88
2023-05-14T11:05:52.385Z,26.93
2023-05-14T11:06:52.397Z,24.79
2023-05-14T11:07:52.387Z,25.57
2023-05-14T11:08:52.387Z,25.00
2023-05-14T11:09:52.399Z,28.18
2023-05-14T11:10:52.429Z,27.29
2023-05-14T11:11:52.423Z,24.91
2023-05-14T11:12:52.411Z,25.20
2023-05-14T11:13:52.409Z,27.70
2023-05-14T11:14:52.824Z,26.06
2023-05-14T11:15:52.415Z,26.99
2023-05-14T11:16:52.400Z,25.48
2023-05-14T11:17:52.356Z,25.00
2023-05-14T11:18:52.285Z,25.00
2023-05-14T11:19:52.334Z,24.20
2023-05-14T11:20:52.600Z,24.37
2023-05-14T11:21:52.622Z,26.95
2023-05-14T11:22:52.715Z,30.68
2023-05-14T11:23:52.777Z,37.32
2023-05-14T11:24:52.848Z,38.98
2023-05-14T11:25:53.028Z,38.21
2023-05-14T11:26:53.096Z,40.44
2023-05-14T11:27:53.243Z,34.55
2023-05-14T11:28:53.302Z,29.87
2023-05-14T11:29:53.503Z,29.81
2023-05-14T11:30:53.728Z,33.85
2023-05-14T11:31:53.878Z,34.65
2023-05-14T11:32:53.895Z,46.90
2023-05-14T11:33:54.026Z,54.76
2023-05-14T11:34:54.186Z,49.75
2023-05-14T11:35:54.191Z,40.64
2023-05-14T11:36:54.353Z,44.45
2023-05-14T11:37:54.481Z,41.40
2023-05-14T11:38:54.610Z,40.41
2023-05-14T11:39:54.719Z,46.30
2023-05-14T11:40:54.781Z,37.48
2023-05-14T11:41:54.895Z,31.41
2023-05-14T11:42:55.109Z,34.67
2023-05-14T11:43:55.089Z,38.26
2023-05-14T11:44:55.260Z,46.54
2023-05-14T11:45:55.515Z,46.81
2023-05-14T11:46:55.462Z,49.75
2023-05-14T11:47:55.626Z,56.50
2023-05-14T11:48:55.623Z,58.16
2023-05-14T11:49:55.784Z,63.74
2023-05-14T11:50:55.897Z,65.65
2023-05-14T11:51:55.981Z,68.79
2023-05-14T11:52:56.096Z,70.26
2023-05-14T11:53:56.208Z,64.94
2023-05-14T11:54:56.294Z,66.22
2023-05-14T11:55:56.505Z,68.58
2023-05-14T11:56:56.546Z,70.67
2023-05-14T11:57:56.619Z,73.01
2023-05-14T11:58:56.723Z,67.14
2023-05-14T11:59:56.824Z,69.24
2023-05-14T12:00:56.903Z,71.36
2023-05-14T12:01:57.024Z,77.72
2023-05-14T12:02:57.231Z,81.26
2023-05-14T12:03:57.292Z,80.02
2023-05-14T12:04:57.331Z,80.54
2023-05-14T12:05:57.341Z,79.19
2023-05-14T12:06:57.469Z,81.89
2023-05-14T12:07:57.606Z,85.08
2023-05-14T12:08:57.572Z,84.43
2023-05-14T12:09:57.522Z,82.78
2023-05-14T12:10:57.452Z,81.08
2023-05-14T12:11:57.555Z,87.16
2023-05-14T12:12:57.416Z,97.34
2023-05-14T12:13:57.357Z,93.32
2023-05-14T12:14:57.275Z,84.66
2023-05-14T12:15:57.358Z,91.82
2023-05-14T12:16:57.440Z,102.93
2023-05-14T12:17:57.648Z,106.95
2023-05-14T12:18:57.739Z,108.47
2023-05-14T12:19:57.837Z,112.93
2023-05-14T12:20:58.078Z,105.84
2023-05-14T12:21:58.073Z,99.75
2023-05-14T12:22:58.272Z,103.32
2023-05-14T12:23:58.329Z,102.87
2023-05-14T12:24:58.432Z,104.26
2023-05-14T12:25:58.521Z,105.75
2023-05-14T12:26:58.682Z,94.26
2023-05-14T12:27:58.822Z,87.03
2023-05-14T12:28:58.910Z,81.03
2023-05-14T12:30:09.349Z,74.52
2023-05-14T12:30:59.919Z,63.32
2023-05-14T12:31:58.858Z,58.79
2023-05-14T12:32:58.689Z,51.63
2023-05-14T12:33:58.558Z,42.57
2023-05-14T12:34:58.436Z,38.76
2023-05-14T12:36:00.510Z,53.84
2023-05-14T12:36:59.224Z,49.01